Time;durP1;ratioP1;P1;durP2;ratioP2;P2;SDS_P1;SDS_P2;PMS_P1;PMS_P2;Temp;Humidity;BMP_temperature;BMP_pressure;BME280_temperature;BME280_humidity;BME280_pressure;Samples;Min_cycle;Max_cycle;Signal;HPM_P1;HPM_P2
2023/05/31 00:01:06;;;;;;;7.63;5.03;;;;;;;20.48;58.38;95284.91;5071794;28;20261;-79
2023/05/31 00:03:31;;;;;;;8.13;4.95;;;;;;;20.37;58.50;95271.84;5072836;28;20617;-79
2023/05/31 00:05:57;;;;;;;10.50;5.72;;;;;;;20.44;58.81;95286.69;5074272;28;20025;-79
2023/05/31 00:08:22;;;;;;;11.00;6.40;;;;;;;20.30;58.56;95260.81;5072543;28;20033;-79
2023/05/31 00:10:47;;;;;;;8.20;6.35;;;;;;;19.96;58.45;95215.38;5072775;28;20063;-79
2023/05/31 00:13:13;;;;;;;13.70;6.55;;;;;;;20.20;58.54;95247.00;5074575;28;20039;-79
2023/05/31 00:15:38;;;;;;;11.63;6.72;;;;;;;20.30;58.47;95263.50;5074474;28;20111;-79
2023/05/31 00:18:04;;;;;;;14.98;7.53;;;;;;;20.32;58.46;95261.25;5073647;28;20029;-79
2023/05/31 00:20:29;;;;;;;10.02;7.07;;;;;;;20.39;58.50;95279.59;5074279;28;20565;-79
2023/05/31 00:22:55;;;;;;;12.05;7.05;;;;;;;20.33;58.39;95270.13;5074000;28;20107;-79
2023/05/31 00:25:20;;;;;;;11.45;6.88;;;;;;;20.27;58.41;95268.78;5072444;28;20047;-79
2023/05/31 00:27:46;;;;;;;14.25;7.90;;;;;;;20.03;58.67;95229.88;5072441;28;20547;-79
2023/05/31 00:30:12;;;;;;;13.25;7.30;;;;;;;20.14;59.08;95264.47;5072233;28;20548;-79
2023/05/31 00:32:37;;;;;;;11.00;7.38;;;;;;;20.14;59.28;95267.16;5072863;28;20040;-79
2023/05/31 00:35:03;;;;;;;15.95;7.65;;;;;;;20.13;59.31;95266.38;5071959;28;20181;-79
2023/05/31 00:37:29;;;;;;;16.50;8.00;;;;;;;20.31;59.12;95296.59;5072058;28;20043;-79
2023/05/31 00:39:54;;;;;;;12.35;7.38;;;;;;;20.25;59.14;95287.94;5072615;28;20032;-79
2023/05/31 00:42:19;;;;;;;13.55;7.45;;;;;;;20.06;59.11;95255.38;5072005;28;20039;-79
2023/05/31 00:44:45;;;;;;;11.13;6.55;;;;;;;20.23;59.06;95286.69;5073557;28;20036;-79
2023/05/31 00:47:11;;;;;;;15.80;6.07;;;;;;;20.31;59.18;95305.47;5073988;28;20099;-79
2023/05/31 00:49:37;;;;;;;10.13;6.05;;;;;;;20.19;59.17;95285.81;5073502;28;20618;-79
2023/05/31 00:52:03;;;;;;;9.45;6.25;;;;;;;19.99;59.24;95258.56;5072928;28;20186;-79
2023/05/31 00:54:29;;;;;;;11.02;5.60;;;;;;;19.93;59.26;95262.59;5073537;28;20036;-79
2023/05/31 00:56:54;;;;;;;8.45;5.78;;;;;;;20.24;59.15;95304.44;5071744;28;20094;-79
2023/05/31 00:59:20;;;;;;;14.10;6.35;;;;;;;20.22;59.46;95299.38;5072045;28;20049;-79
2023/05/31 01:01:46;;;;;;;7.30;5.57;;;;;;;19.89;59.58;95247.44;5073570;28;20499;-79
2023/05/31 01:04:12;;;;;;;11.75;5.65;;;;;;;20.22;59.37;95304.75;5072775;28;20101;-79
2023/05/31 01:06:39;;;;;;;8.70;5.07;;;;;;;19.91;59.63;95254.03;5071553;28;20097;-79
2023/05/31 01:09:07;;;;;;;9.13;5.18;;;;;;;20.10;59.59;95283.19;5071297;28;20028;-79
2023/05/31 01:11:57;;;;;;;8.85;6.10;;;;;;;20.16;59.64;95297.22;5071558;28;20033;-79
2023/05/31 01:14:45;;;;;;;8.80;5.50;;;;;;;20.08;59.93;95284.63;5071418;28;20471;-79
2023/05/31 01:17:30;;;;;;;11.00;5.45;;;;;;;19.74;59.88;95240.75;5072590;28;20506;-79
2023/05/31 01:19:59;;;;;;;9.43;6.47;;;;;;;20.14;60.00;95299.47;5071542;28;20591;-79
2023/05/31 01:22:50;;;;;;;12.20;6.18;;;;;;;20.13;60.03;95301.38;5073084;28;20031;-79
2023/05/31 01:25:45;;;;;;;9.52;6.38;;;;;;;20.11;60.01;95303.59;5071224;28;20035;-79
2023/05/31 01:28:13;;;;;;;17.08;7.35;;;;;;;19.94;60.25;95277.63;5068191;28;20449;-79
2023/05/31 01:30:38;;;;;;;15.02;8.38;;;;;;;19.99;60.20;95285.47;5072475;28;20032;-79
2023/05/31 01:33:10;;;;;;;14.45;9.02;;;;;;;20.05;60.14;95296.84;5071682;28;20495;-79
2023/05/31 01:35:35;;;;;;;;;;;;;;;19.99;60.66;95300.84;5072594;28;20611;-79
2023/05/31 01:38:01;;;;;;;16.60;9.02;;;;;;;19.94;60.67;95285.69;5070642;28;19927;-79
2023/05/31 01:40:26;;;;;;;17.80;9.20;;;;;;;20.04;60.85;95297.97;5069802;28;20047;-82
2023/05/31 01:42:52;;;;;;;13.45;8.52;;;;;;;19.94;60.72;95282.22;5069318;28;20036;-82
2023/05/31 01:45:19;;;;;;;15.65;7.85;;;;;;;19.80;60.80;95254.78;5069468;28;20075;-83
2023/05/31 01:47:47;;;;;;;15.13;8.45;;;;;;;19.74;60.72;95264.19;5051859;28;20068;-83
2023/05/31 01:50:14;;;;;;;16.13;9.35;;;;;;;19.41;60.99;95212.97;5069816;28;20418;-82
2023/05/31 01:52:40;;;;;;;13.88;8.65;;;;;;;19.96;61.08;95298.84;5070596;28;20037;-82
2023/05/31 01:55:06;;;;;;;16.48;10.07;;;;;;;20.00;61.06;95303.22;5068121;28;20024;-81
2023/05/31 01:57:33;;;;;;;17.85;9.27;;;;;;;19.81;61.00;95280.59;5068294;28;20246;-81
2023/05/31 02:00:00;;;;;;;19.48;9.30;;;;;;;19.99;61.20;95290.88;5084899;28;20055;-80
2023/05/31 02:02:28;;;;;;;12.13;7.75;;;;;;;19.77;61.08;95267.00;5090363;28;20035;-81
2023/05/31 02:05:11;;;;;;;16.58;8.93;;;;;;;19.80;61.29;95277.13;5089172;28;20096;-81
2023/05/31 02:07:37;;;;;;;12.00;7.93;;;;;;;19.85;61.60;95303.03;5071604;28;20031;-81
2023/05/31 02:10:03;;;;;;;13.93;7.97;;;;;;;19.75;61.61;95289.97;5071724;28;20589;-81
2023/05/31 02:12:29;;;;;;;10.07;7.28;;;;;;;19.23;61.90;95220.38;5071762;28;20038;-81
2023/05/31 02:14:54;;;;;;;10.13;7.22;;;;;;;19.50;62.08;95262.94;5089199;28;20038;-81
2023/05/31 02:17:23;;;;;;;13.57;8.82;;;;;;;19.80;62.13;95312.09;5089499;28;20047;-81
2023/05/31 02:19:51;;;;;;;12.63;8.45;;;;;;;19.74;61.80;95299.97;5071892;28;20409;-81
2023/05/31 02:22:17;;;;;;;13.10;7.35;;;;;;;19.81;61.93;95307.50;5089340;28;20028;-80
2023/05/31 02:24:42;;;;;;;17.13;7.97;;;;;;;19.62;61.79;95281.03;5089751;28;20500;-81
2023/05/31 02:27:08;;;;;;;13.85;7.65;;;;;;;19.69;61.79;95296.66;5071432;28;20032;-81
2023/05/31 02:29:33;;;;;;;10.43;7.65;;;;;;;19.68;62.02;95295.91;5071554;28;20119;-81
2023/05/31 02:31:58;;;;;;;17.27;8.50;;;;;;;19.58;62.57;95282.81;5071422;28;20058;-81
2023/05/31 02:34:26;;;;;;;13.63;8.63;;;;;;;19.81;62.60;95304.81;5071492;28;20034;-81
2023/05/31 02:36:52;;;;;;;18.13;9.10;;;;;;;19.79;62.39;95312.41;5054447;28;20047;-81
2023/05/31 02:39:18;;;;;;;17.85;9.98;;;;;;;19.41;62.22;95256.00;5089602;28;20024;-81
2023/05/31 02:41:44;;;;;;;17.25;10.23;;;;;;;19.46;62.11;95271.94;5093459;28;20035;-81
2023/05/31 02:44:09;;;;;;;13.45;8.68;;;;;;;19.61;62.45;95291.00;5075338;28;20024;-81
2023/05/31 02:46:35;;;;;;;17.98;8.48;;;;;;;19.58;62.43;95290.88;5074753;28;20261;-81
2023/05/31 02:49:01;;;;;;;16.38;8.50;;;;;;;19.71;62.28;95305.19;5074808;28;20620;-81
2023/05/31 02:51:26;;;;;;;16.92;8.32;;;;;;;19.66;62.34;95295.44;5093380;28;20147;-81
2023/05/31 02:53:52;;;;;;;18.55;8.25;;;;;;;19.70;62.12;95304.41;5093496;28;20036;-81
2023/05/31 02:56:18;;;;;;;13.50;7.47;;;;;;;18.76;62.26;95155.25;5074663;28;20130;-81
2023/05/31 02:58:43;;;;;;;13.55;8.10;;;;;;;19.64;61.96;95293.06;5074830;28;20455;-81
2023/05/31 03:01:09;;;;;;;13.48;7.22;;;;;;;19.74;61.99;95309.94;5093259;28;20043;-81
2023/05/31 03:03:34;;;;;;;17.02;7.13;;;;;;;19.71;62.20;95316.75;5093302;28;20027;-81
2023/05/31 03:06:00;;;;;;;14.88;7.60;;;;;;;19.31;62.14;95242.94;5092783;28;20043;-81
2023/05/31 03:08:25;;;;;;;10.60;7.18;;;;;;;19.53;62.14;95289.16;5092598;28;20115;-81
2023/05/31 03:10:51;;;;;;;18.38;8.27;;;;;;;19.45;62.46;95276.56;5075019;28;20079;-81
2023/05/31 03:13:16;;;;;;;13.25;6.95;;;;;;;19.43;62.31;95275.31;5074530;28;20036;-81
2023/05/31 03:15:41;;;;;;;9.70;7.00;;;;;;;19.49;62.27;95290.16;5074851;28;20722;-81
2023/05/31 03:18:07;;;;;;;17.55;7.30;;;;;;;19.60;62.44;95307.50;5092777;28;20107;-81
2023/05/31 03:20:33;;;;;;;12.90;6.75;;;;;;;19.46;62.36;95288.06;5074537;28;20059;-81
2023/05/31 03:22:59;;;;;;;12.52;8.15;;;;;;;19.53;62.42;95299.16;5092815;28;20036;-81
2023/05/31 03:25:25;;;;;;;17.50;8.77;;;;;;;19.60;62.30;95305.59;5092959;28;20086;-81
2023/05/31 03:27:50;;;;;;;20.77;8.90;;;;;;;19.63;62.26;95310.31;5092301;28;20036;-81
2023/05/31 03:30:16;;;;;;;20.90;8.27;;;;;;;19.42;62.22;95284.47;5074664;28;20028;-81
2023/05/31 03:32:41;;;;;;;16.13;8.38;;;;;;;19.44;62.26;95293.81;5093049;28;20040;-81
2023/05/31 03:35:07;;;;;;;14.45;7.50;;;;;;;19.56;62.33;95314.63;5092471;28;20107;-81
2023/05/31 03:37:34;;;;;;;14.40;7.80;;;;;;;19.72;62.20;95331.00;5091990;28;20211;-81
2023/05/31 03:39:59;;;;;;;12.20;7.82;;;;;;;19.72;62.22;95333.69;5074297;28;20517;-81
2023/05/31 03:42:25;;;;;;;14.93;7.22;;;;;;;19.40;62.10;95279.41;5092263;28;20024;-81
2023/05/31 03:44:50;;;;;;;10.45;7.32;;;;;;;19.55;62.06;95305.78;5092395;28;20047;-81
2023/05/31 03:47:16;;;;;;;12.43;7.28;;;;;;;19.75;62.19;95338.41;5074002;28;20028;-81
2023/05/31 03:49:41;;;;;;;13.55;7.97;;;;;;;19.48;62.19;95299.34;5073611;28;20077;-81
2023/05/31 03:52:12;;;;;;;12.48;7.78;;;;;;;18.85;62.16;95205.09;5073771;28;20482;-80
2023/05/31 03:54:38;;;;;;;13.38;8.02;;;;;;;19.17;62.21;95253.94;5074824;28;20059;-81
2023/05/31 03:57:03;;;;;;;9.48;7.72;;;;;;;19.58;62.20;95315.91;5092028;28;20044;-81
2023/05/31 03:59:29;;;;;;;15.05;7.25;;;;;;;19.74;62.21;95339.53;5073325;28;20450;-81
2023/05/31 04:01:55;;;;;;;13.68;7.32;;;;;;;19.61;62.07;95319.81;5091316;28;20158;-81
2023/05/31 04:04:20;;;;;;;11.68;6.78;;;;;;;19.76;62.24;95332.69;5073778;28;20085;-81
2023/05/31 04:06:45;;;;;;;11.30;7.05;;;;;;;19.73;62.30;95332.56;5064446;28;20470;-81
2023/05/31 04:09:11;;;;;;;14.27;6.22;;;;;;;19.69;61.96;95321.66;5072424;28;20028;-81
2023/05/31 04:11:37;;;;;;;15.95;7.07;;;;;;;19.71;62.00;95329.41;5065473;28;20036;-81
2023/05/31 04:14:02;;;;;;;14.45;6.60;;;;;;;19.83;61.76;95346.44;5067948;28;20040;-81
2023/05/31 04:16:28;;;;;;;10.75;6.60;;;;;;;19.63;61.56;95310.31;5079339;28;20042;-81
2023/05/31 04:18:54;;;;;;;13.82;6.32;;;;;;;19.70;61.46;95319.75;5056384;28;20130;-81
2023/05/31 04:21:20;;;;;;;14.02;6.20;;;;;;;19.56;61.73;95296.59;5056091;28;20586;-84
2023/05/31 04:23:46;;;;;;;19.70;6.82;;;;;;;19.47;61.76;95279.72;5085627;28;20036;-81
2023/05/31 04:26:16;;;;;;;14.70;6.20;;;;;;;19.96;61.58;95350.75;5066868;28;20082;-80
2023/05/31 04:28:44;;;;;;;14.25;6.55;;;;;;;19.72;61.31;95312.94;5055978;28;20044;-81
2023/05/31 04:31:11;;;;;;;14.45;6.05;;;;;;;20.03;61.08;95353.72;5044072;28;20473;-81
2023/05/31 04:33:38;;;;;;;27.13;6.32;;;;;;;20.08;61.04;95354.63;5064700;28;20055;-81
2023/05/31 04:36:08;;;;;;;21.33;6.57;;;;;;;20.12;60.77;95364.41;5065388;28;20063;-81
2023/05/31 04:38:34;;;;;;;13.63;7.03;;;;;;;18.78;60.54;95150.31;5082624;28;20461;-81
2023/05/31 04:41:00;;;;;;;12.38;5.97;;;;;;;20.14;60.04;95354.09;5060782;28;20047;-81
2023/05/31 04:43:25;;;;;;;13.85;6.28;;;;;;;20.24;60.03;95375.25;5062235;28;20394;-81
2023/05/31 04:45:53;;;;;;;11.75;6.38;;;;;;;19.96;60.03;95334.63;5083815;28;20043;-80
2023/05/31 04:48:19;;;;;;;14.43;6.22;;;;;;;19.86;59.83;95302.69;5064510;28;20038;-80
2023/05/31 04:50:48;;;;;;;12.52;6.25;;;;;;;19.98;59.73;95331.59;5081348;28;20274;-80
2023/05/31 04:53:14;;;;;;;8.80;5.80;;;;;;;20.07;59.94;95337.69;5083119;28;20028;-82
2023/05/31 04:55:39;;;;;;;15.75;6.32;;;;;;;20.14;59.97;95335.25;5064709;28;20036;-80
2023/05/31 04:58:05;;;;;;;16.58;6.32;;;;;;;20.28;59.79;95359.22;5081664;28;20154;-80
2023/05/31 05:00:32;;;;;;;14.48;5.85;;;;;;;20.45;59.43;95375.25;5058128;28;21135;-80
2023/05/31 05:02:58;;;;;;;16.63;6.53;;;;;;;20.47;59.62;95381.09;5057177;28;20284;-85
2023/05/31 05:05:25;;;;;;;9.38;5.72;;;;;;;20.51;59.65;95378.53;5062309;28;20038;-84
2023/05/31 05:07:51;;;;;;;14.02;6.90;;;;;;;20.24;59.49;95328.66;5058398;28;20036;-82
2023/05/31 05:10:16;;;;;;;16.33;6.53;;;;;;;20.50;59.25;95366.19;5064973;28;20024;-80
2023/05/31 05:12:44;;;;;;;10.95;6.80;;;;;;;20.36;59.34;95340.31;5083143;28;20169;-82
2023/05/31 05:15:10;;;;;;;13.88;5.70;;;;;;;20.21;59.48;95307.81;5080524;28;20067;-81
2023/05/31 05:17:36;;;;;;;14.13;5.93;;;;;;;20.32;58.77;95323.22;5081811;28;20045;-82
2023/05/31 05:20:04;;;;;;;11.95;6.60;;;;;;;20.33;58.94;95318.59;5081855;28;20024;-83
2023/05/31 05:22:30;;;;;;;16.67;6.63;;;;;;;20.52;59.13;95353.94;5055714;28;20124;-81
2023/05/31 05:24:57;;;;;;;11.73;6.47;;;;;;;20.45;58.57;95334.81;5060931;28;20429;-84
2023/05/31 05:27:22;;;;;;;12.82;6.32;;;;;;;20.89;58.51;95407.97;5060570;28;20090;-83
2023/05/31 05:29:48;;;;;;;13.95;6.85;;;;;;;20.54;58.31;95349.00;5064608;28;20475;-81
2023/05/31 05:32:13;;;;;;;16.77;6.80;;;;;;;20.85;58.61;95396.25;5061061;28;20068;-82
2023/05/31 05:34:39;;;;;;;10.48;6.68;;;;;;;20.80;58.59;95383.78;5076168;28;20106;-82
2023/05/31 05:37:05;;;;;;;12.70;6.85;;;;;;;21.05;58.53;95407.00;5061375;28;20028;-81
2023/05/31 05:39:30;;;;;;;15.65;7.38;;;;;;;20.93;58.74;95385.38;5063593;28;20088;-83
2023/05/31 05:41:57;;;;;;;14.05;7.45;;;;;;;21.09;58.34;95415.19;5074612;28;20047;-83
2023/05/31 05:44:23;;;;;;;20.63;7.75;;;;;;;20.86;58.33;95379.75;5053408;28;20040;-80
2023/05/31 05:46:49;;;;;;;18.73;8.88;;;;;;;20.97;58.08;95388.22;5069488;28;20040;-79
2023/05/31 05:49:15;;;;;;;18.25;8.73;;;;;;;20.88;58.16;95360.56;5056513;28;20154;-80
2023/05/31 05:51:41;;;;;;;19.27;9.60;;;;;;;20.91;57.95;95370.66;5059159;28;20503;-83
2023/05/31 05:54:06;;;;;;;21.17;9.93;;;;;;;21.13;58.24;95398.00;5058333;28;20028;-81
2023/05/31 05:56:31;;;;;;;26.02;10.90;;;;;;;20.71;57.65;95307.63;5082897;28;20035;-81
2023/05/31 05:58:57;;;;;;;22.25;11.45;;;;;;;21.35;57.14;95410.34;5084926;28;20051;-81
2023/05/31 06:01:23;;;;;;;19.33;10.80;;;;;;;21.46;57.10;95406.06;5066258;28;20098;-80
2023/05/31 06:03:49;;;;;;;17.80;11.52;;;;;;;21.36;57.17;95384.91;5060259;28;20032;-82
2023/05/31 06:06:16;;;;;;;22.15;11.82;;;;;;;21.52;56.84;95401.22;5080373;28;20130;-80
2023/05/31 06:08:45;;;;;;;25.73;10.50;;;;;;;21.48;56.65;95381.44;5083198;28;20337;-81
2023/05/31 06:11:11;;;;;;;21.20;10.95;;;;;;;21.26;57.10;95342.22;5055908;28;20031;-82
2023/05/31 06:13:37;;;;;;;29.65;9.95;;;;;;;21.66;56.57;95388.19;5053527;28;20032;-81
2023/05/31 06:16:05;;;;;;;16.27;8.63;;;;;;;21.78;55.96;95395.47;5058664;28;20054;-80
2023/05/31 06:18:31;;;;;;;22.13;8.77;;;;;;;21.70;56.21;95377.50;5064212;28;20028;-80
2023/05/31 06:20:57;;;;;;;19.50;8.48;;;;;;;22.01;56.23;95433.63;5065090;28;20020;-80
2023/05/31 06:23:23;;;;;;;17.48;8.05;;;;;;;21.91;56.20;95395.13;5081685;28;20036;-79
2023/05/31 06:25:50;;;;;;;17.48;8.70;;;;;;;21.70;55.84;95345.09;5079221;28;20410;-82
2023/05/31 06:28:16;;;;;;;14.10;8.13;;;;;;;21.97;55.75;95400.34;5062164;28;20112;-81
2023/05/31 06:30:43;;;;;;;17.70;8.82;;;;;;;22.13;55.89;95409.28;5066503;28;20052;-84
2023/05/31 06:33:08;;;;;;;15.85;8.75;;;;;;;21.87;55.53;95358.34;5074101;28;20028;-87
2023/05/31 06:35:34;;;;;;;17.60;8.27;;;;;;;22.12;55.27;95405.81;5069397;28;20384;-83
2023/05/31 06:37:59;;;;;;;24.08;9.45;;;;;;;22.26;54.99;95419.75;5095341;28;20046;-88
2023/05/31 06:40:25;;;;;;;17.95;7.93;;;;;;;22.20;54.83;95382.50;5066506;28;20076;-84
2023/05/31 06:42:50;;;;;;;17.73;8.75;;;;;;;22.47;54.29;95424.19;5082170;28;20039;-84
2023/05/31 06:45:16;;;;;;;20.02;7.10;;;;;;;22.58;54.13;95417.94;5088754;28;20039;-83
2023/05/31 06:47:41;;;;;;;17.70;7.80;;;;;;;22.28;54.29;95365.34;5085416;28;20395;-82
2023/05/31 06:50:07;;;;;;;13.90;7.07;;;;;;;22.21;54.30;95346.25;5082243;28;20436;-82
2023/05/31 06:52:32;;;;;;;15.80;7.85;;;;;;;22.50;54.65;95388.38;5067499;28;20068;-81
2023/05/31 06:54:58;;;;;;;16.05;7.85;;;;;;;22.22;54.63;95327.00;5065994;28;20032;-82
2023/05/31 06:57:23;;;;;;;17.67;8.13;;;;;;;22.80;53.57;95416.66;5072210;28;20177;-82
2023/05/31 06:59:49;;;;;;;24.73;8.75;;;;;;;22.83;53.36;95424.06;5085872;28;20539;-82
2023/05/31 07:02:16;;;;;;;16.08;8.43;;;;;;;22.57;53.46;95370.44;5070832;28;20055;-82
2023/05/31 07:04:41;;;;;;;12.07;6.82;;;;;;;22.69;53.17;95383.09;5066992;28;20028;-83
2023/05/31 07:07:08;;;;;;;20.65;7.47;;;;;;;22.65;52.86;95374.91;5068431;28;20039;-83
2023/05/31 07:09:34;;;;;;;14.57;7.22;;;;;;;22.84;52.80;95404.00;5082627;28;20032;-83
2023/05/31 07:12:00;;;;;;;15.55;7.47;;;;;;;22.70;52.99;95368.44;5079553;28;20589;-81
2023/05/31 07:14:39;;;;;;;18.23;8.88;;;;;;;23.07;53.06;95421.25;5085922;28;20139;-93
2023/05/31 07:17:05;;;;;;;23.35;7.65;;;;;;;22.50;52.56;95334.31;5053408;28;20041;-86
2023/05/31 07:19:33;;;;;;;18.55;9.60;;;;;;;23.17;52.60;95428.06;5086902;28;20577;-80
2023/05/31 07:22:06;;;;;;;26.02;9.32;;;;;;;21.44;52.74;95151.19;5068645;28;20024;-83
2023/05/31 07:24:32;;;;;;;20.75;7.70;;;;;;;21.63;51.70;95178.34;5055792;28;20028;-81
2023/05/31 07:26:57;;;;;;;19.42;8.10;;;;;;;22.75;52.97;95379.03;5072917;28;20036;-82
2023/05/31 07:29:23;;;;;;;12.25;7.43;;;;;;;23.35;52.44;95425.78;5066632;28;20043;-81
2023/05/31 07:31:48;;;;;;;19.13;8.13;;;;;;;23.51;51.49;95417.72;5090321;28;20111;-80
2023/05/31 07:34:14;;;;;;;24.52;7.82;;;;;;;23.61;51.34;95419.91;5089581;28;20032;-81
2023/05/31 07:36:41;;;;;;;16.65;7.22;;;;;;;23.47;51.34;95406.78;5067012;28;20104;-80
2023/05/31 07:39:06;;;;;;;9.48;6.72;;;;;;;23.51;51.18;95396.84;5067764;28;20459;-79
2023/05/31 07:41:31;;;;;;;17.30;9.32;;;;;;;23.19;51.00;95363.56;5084993;28;20110;-80
2023/05/31 07:44:00;;;;;;;27.30;9.50;;;;;;;23.46;50.87;95370.81;5063285;28;20514;-81
2023/05/31 07:46:25;;;;;;;15.10;7.68;;;;;;;23.52;50.83;95357.03;5089417;28;20024;-80
2023/05/31 07:48:53;;;;;;;17.85;8.88;;;;;;;23.54;51.39;95398.88;5066430;28;20111;-80
2023/05/31 07:51:20;;;;;;;11.32;6.90;;;;;;;23.62;50.68;95378.94;5084920;28;20786;-86
2023/05/31 07:53:46;;;;;;;17.48;7.85;;;;;;;23.91;51.18;95399.34;5070491;28;20096;-81
2023/05/31 07:56:12;;;;;;;13.43;7.10;;;;;;;23.62;51.41;95351.09;5083567;28;20608;-85
2023/05/31 07:58:38;;;;;;;22.55;7.97;;;;;;;24.05;51.45;95415.13;5067900;28;20044;-85
2023/05/31 08:01:04;;;;;;;13.25;8.48;;;;;;;24.06;50.46;95389.59;5064496;28;20039;-83
2023/05/31 08:03:31;;;;;;;14.82;7.15;;;;;;;24.07;49.82;95391.97;5065549;28;20029;-83
2023/05/31 08:05:56;;;;;;;13.13;7.05;;;;;;;24.50;50.23;95409.13;5062787;28;20115;-84
2023/05/31 08:08:22;;;;;;;17.30;7.00;;;;;;;24.42;49.85;95393.88;5064765;28;20131;-84
2023/05/31 08:10:47;;;;;;;19.70;7.18;;;;;;;23.71;49.77;95254.22;5053567;28;20143;-84
2023/05/31 08:13:16;;;;;;;12.48;6.97;;;;;;;24.68;48.74;95398.66;5056288;28;20032;-83
2023/05/31 08:15:41;;;;;;;14.25;6.78;;;;;;;24.16;48.11;95321.31;5062243;28;20965;-83
2023/05/31 08:18:07;;;;;;;9.70;6.25;;;;;;;24.52;48.18;95366.19;5066515;28;20043;-84
2023/05/31 08:20:37;;;;;;;10.65;6.63;;;;;;;25.01;48.29;95401.66;5064215;28;20060;-86
2023/05/31 08:23:02;;;;;;;11.43;6.43;;;;;;;25.02;48.57;95384.25;5065199;28;20357;-88
2023/05/31 08:25:28;;;;;;;9.82;6.32;;;;;;;24.53;48.46;95308.91;5066006;28;20032;-83
2023/05/31 08:27:54;;;;;;;15.13;7.22;;;;;;;25.12;46.87;95397.19;5067045;28;20622;-85
2023/05/31 08:30:19;;;;;;;10.82;5.88;;;;;;;25.10;47.71;95379.72;5065812;28;20123;-83
2023/05/31 08:32:45;;;;;;;13.23;6.85;;;;;;;24.18;47.99;95262.13;5067354;28;20044;-84
2023/05/31 08:35:10;;;;;;;11.50;5.90;;;;;;;25.26;47.75;95389.28;5070321;28;20037;-83
2023/05/31 08:37:37;;;;;;;11.63;6.57;;;;;;;25.04;47.56;95365.66;5068107;28;20068;-81
2023/05/31 08:40:03;;;;;;;10.20;5.97;;;;;;;25.38;47.47;95377.50;5065095;28;20090;-81
2023/05/31 08:42:38;;;;;;;10.00;5.60;;;;;;;24.90;47.19;95281.28;5060510;28;20088;-80
2023/05/31 08:45:04;;;;;;;7.03;5.38;;;;;;;25.46;47.76;95383.81;5061920;28;20059;-80
2023/05/31 08:47:42;;;;;;;8.32;5.15;;;;;;;25.56;46.71;95359.53;5059876;28;20036;-80
2023/05/31 08:50:08;;;;;;;12.73;5.63;;;;;;;25.80;46.84;95379.31;5062265;28;20406;-80
2023/05/31 08:52:35;;;;;;;13.63;6.22;;;;;;;25.51;46.44;95351.69;5061172;28;20031;-80
2023/05/31 08:55:03;;;;;;;10.05;5.47;;;;;;;25.57;47.77;95344.03;5062276;28;20032;-79
2023/05/31 08:57:30;;;;;;;11.85;6.22;;;;;;;25.37;47.49;95373.19;5049366;28;20641;-79
2023/05/31 08:59:57;;;;;;;9.32;6.13;;;;;;;25.51;46.09;95357.13;5052317;28;20155;-80
2023/05/31 09:02:23;;;;;;;11.30;6.68;;;;;;;25.25;46.33;95319.88;5058405;28;20666;-81
2023/05/31 09:04:50;;;;;;;9.10;6.43;;;;;;;25.34;47.44;95316.91;5055279;28;20468;-81
2023/05/31 09:07:16;;;;;;;11.82;7.07;;;;;;;25.54;46.86;95334.69;5061144;28;20033;-80
2023/05/31 09:09:41;;;;;;;13.63;5.40;;;;;;;25.65;47.54;95359.31;5054134;28;20510;-80
2023/05/31 09:12:07;;;;;;;10.43;6.20;;;;;;;25.39;47.34;95294.91;5051262;28;20060;-81
2023/05/31 09:14:34;;;;;;;14.65;5.90;;;;;;;25.84;46.80;95348.34;5048864;28;20733;-80
2023/05/31 09:17:00;;;;;;;11.88;5.75;;;;;;;25.85;46.45;95360.78;5046292;28;20039;-80
2023/05/31 09:19:26;;;;;;;12.38;5.80;;;;;;;25.74;46.26;95351.69;5055351;28;20032;-80
2023/05/31 09:21:52;;;;;;;8.77;6.07;;;;;;;25.70;47.17;95356.31;5049806;28;20518;-80
2023/05/31 09:24:19;;;;;;;14.95;6.18;;;;;;;25.74;46.18;95333.47;5038731;28;20578;-80
2023/05/31 09:26:48;;;;;;;8.88;5.78;;;;;;;25.78;45.73;95332.75;5043508;28;20036;-80
2023/05/31 09:29:15;;;;;;;7.10;5.30;;;;;;;25.94;45.63;95349.66;5056396;28;20021;-80
2023/05/31 09:31:41;;;;;;;7.22;5.07;;;;;;;25.70;46.48;95340.78;5047398;28;20025;-81
2023/05/31 09:34:24;;;;;;;9.90;5.53;;;;;;;25.62;45.34;95338.31;5050673;28;20035;-80
2023/05/31 09:36:51;;;;;;;7.78;5.22;;;;;;;25.35;45.67;95270.41;5043957;28;20044;-80
2023/05/31 09:39:16;;;;;;;7.53;5.15;;;;;;;25.76;45.47;95335.81;5052772;28;20635;-80
2023/05/31 09:41:42;;;;;;;11.63;5.60;;;;;;;25.92;44.70;95333.72;5053104;28;20042;-81
2023/05/31 09:44:08;;;;;;;11.98;5.50;;;;;;;25.82;45.19;95299.03;5057517;28;20059;-80
2023/05/31 09:46:34;;;;;;;10.32;5.57;;;;;;;25.77;45.59;95293.13;5060405;28;20069;-80
2023/05/31 09:49:06;;;;;;;9.32;5.88;;;;;;;25.68;44.63;95267.03;5054589;28;20037;-80
2023/05/31 09:51:33;;;;;;;11.07;5.40;;;;;;;26.08;44.87;95306.38;5057775;28;20189;-80
2023/05/31 09:54:14;;;;;;;7.85;5.85;;;;;;;26.01;46.13;95300.84;5057294;28;20644;-80
2023/05/31 09:56:43;;;;;;;11.60;5.50;;;;;;;25.96;47.32;95328.31;5062407;28;20128;-80
2023/05/31 09:59:10;;;;;;;17.48;7.75;;;;;;;25.89;47.95;95322.78;5054509;28;20503;-80
2023/05/31 10:01:37;;;;;;;9.52;6.90;;;;;;;25.72;49.21;95322.16;5057651;28;20036;-80
2023/05/31 10:04:09;;;;;;;12.02;6.75;;;;;;;25.51;50.20;95310.97;5065180;28;20093;-80
2023/05/31 10:06:35;;;;;;;14.05;7.20;;;;;;;24.98;51.63;95242.28;5059561;28;20028;-80
2023/05/31 10:09:05;;;;;;;19.23;7.75;;;;;;;25.10;55.47;95280.06;5059534;28;20086;-81
2023/05/31 10:11:35;;;;;;;14.93;7.00;;;;;;;25.24;56.53;95310.19;5059422;28;20467;-81
2023/05/31 10:14:12;;;;;;;11.65;7.22;;;;;;;25.13;56.52;95311.16;5055750;28;20518;-82
2023/05/31 10:16:49;;;;;;;12.27;7.68;;;;;;;25.14;57.10;95316.22;5056909;28;20054;-82
2023/05/31 10:19:31;;;;;;;12.52;6.90;;;;;;;25.06;57.31;95306.38;5058141;28;20048;-83
2023/05/31 10:22:00;;;;;;;11.70;7.25;;;;;;;24.66;53.41;95260.72;5062273;28;20028;-80
2023/05/31 10:24:37;;;;;;;11.10;7.28;;;;;;;24.86;55.31;95289.38;5050259;28;20024;-80
2023/05/31 10:27:16;;;;;;;16.25;7.05;;;;;;;25.07;55.48;95315.31;5055649;28;20403;-81
2023/05/31 10:29:46;;;;;;;12.32;6.80;;;;;;;25.15;57.81;95296.06;5053308;28;20221;-80
2023/05/31 10:32:21;;;;;;;13.68;7.35;;;;;;;25.24;58.11;95284.97;5053665;28;21427;-81
2023/05/31 10:34:47;;;;;;;13.75;6.07;;;;;;;25.14;52.84;95289.06;5044439;28;20047;-80
2023/05/31 10:37:14;;;;;;;12.98;5.70;;;;;;;25.25;53.76;95287.28;5041209;28;20795;-79
2023/05/31 10:40:06;;;;;;;11.10;5.32;;;;;;;25.41;49.32;95305.38;5054652;28;20036;-80
2023/05/31 10:42:53;;;;;;;8.00;5.20;;;;;;;25.46;49.24;95308.56;5049979;28;20032;-80
2023/05/31 10:45:25;;;;;;;8.48;5.20;;;;;;;25.23;49.36;95265.19;5047654;28;20122;-81
2023/05/31 10:48:13;;;;;;;9.77;5.15;;;;;;;25.48;48.53;95308.22;5050879;28;20803;-81
2023/05/31 10:50:58;;;;;;;8.55;5.15;;;;;;;25.19;49.10;95260.84;5054864;28;20654;-80
2023/05/31 10:53:37;;;;;;;11.00;5.00;;;;;;;25.32;50.09;95308.38;5055885;28;20054;-82
2023/05/31 10:56:09;;;;;;;7.25;4.50;;;;;;;25.09;50.02;95273.13;5051731;28;20061;-80
2023/05/31 10:58:48;;;;;;;11.55;5.20;;;;;;;25.33;50.38;95301.75;5048732;28;20118;-81
2023/05/31 11:01:18;;;;;;;6.05;3.75;;;;;;;25.21;51.75;95307.41;5050879;28;20668;-80
2023/05/31 11:03:46;;;;;;;8.32;4.60;;;;;;;25.19;54.14;95305.03;5054569;28;20168;-81
2023/05/31 11:06:14;;;;;;;10.90;4.38;;;;;;;24.99;51.41;95273.72;5053520;28;20039;-81
2023/05/31 11:09:00;;;;;;;10.02;5.03;;;;;;;24.77;50.73;95247.34;5052032;28;20555;-81
2023/05/31 11:11:46;;;;;;;6.93;4.68;;;;;;;25.02;51.14;95273.00;5045991;28;20032;-82
2023/05/31 11:14:28;;;;;;;12.60;5.35;;;;;;;25.22;51.62;95289.97;5040730;28;20132;-80
2023/05/31 11:16:53;;;;;;;9.45;4.90;;;;;;;25.36;52.08;95290.19;5049348;28;20792;-82
2023/05/31 11:19:35;;;;;;;9.30;5.05;;;;;;;25.35;50.93;95272.34;5056915;28;20078;-81
2023/05/31 11:22:13;;;;;;;16.15;5.60;;;;;;;25.50;48.66;95276.81;5044022;28;20033;-80
2023/05/31 11:24:53;;;;;;;8.48;5.00;;;;;;;25.64;48.29;95295.28;5052766;28;20525;-81
2023/05/31 11:27:34;;;;;;;10.88;5.20;;;;;;;25.34;46.75;95217.25;5052176;28;20097;-87
2023/05/31 11:30:00;;;;;;;11.40;4.57;;;;;;;26.27;46.74;95284.47;5061389;28;20076;-84